KPAM/PAM METAR and TAF weather

Enter ICAO airport designator
Station Type Date Time Source
KPAM METAR 2022/08/13 11:45 UTC NOAA

KPAM 131145Z AUTO 30007KT 10SM FEW046 FEW075 SCT100 25/23 A3002 RMK AO2 DZE01DZB36E45 SLP169 $


Station Type Date Time Source
KPAM Decoded METAR 2022/08/13 11:45 UTC NOAA

Tyndall Air Force Base, FL, United States (KPAM) 30-04N 085-35W 13M
Aug 13, 2022 - 07:45 AM EDT / 2022.08.13 1145 UTC
Wind: from the WNW (300 degrees) at 8 MPH (7 KT):0
Visibility: 10 mile(s):0
Sky conditions: partly cloudy
Temperature: 77 F (25 C)
Dew Point: 73 F (23 C)
Relative Humidity: 88%
Pressure (altimeter): 30.02 in. Hg (1016 hPa)
ob: KPAM 131145Z AUTO 30007KT 10SM FEW046 FEW075 SCT100 25/23 A3002 RMK AO2 DZE01DZB36E45 SLP169
cycle: 12

Station Type Date Time Source
KPAM TAF 2022/08/12 21:09 UTC NOAA

TAF
AMD KPAM 122100Z 1221/1401 24012KT 8000 -SHRA SCT020 BKN050 QNH3003INS
BECMG 1221/1222 24012KT 9999 NSW SCT030 QNH3002INS
BECMG 1304/1305 27006KT 9999 SCT040 QNH3001INS
TEMPO 1306/1309 8000 -SHRA BKN025 TX30/1221Z TN23/1310Z LAST NO
AMDS AFT 1221 NEXT 1511

Example: see airport list